Time;durP1;ratioP1;P1;durP2;ratioP2;P2;SDS_P1;SDS_P2;PMS_P1;PMS_P2;Temp;Humidity;BMP_temperature;BMP_pressure;BME280_temperature;BME280_humidity;BME280_pressure;Samples;Min_cycle;Max_cycle;Signal;HPM_P1;HPM_P2
2021/05/14 00:02:10;;;;;;;9.00;5.53;;;10.40;97.30;;;;;;4957753;28;20202;-86
2021/05/14 00:04:36;;;;;;;12.70;6.97;;;10.40;97.30;;;;;;4957858;28;20305;-86
2021/05/14 00:07:01;;;;;;;11.23;5.77;;;10.40;97.30;;;;;;4957765;28;20206;-86
2021/05/14 00:09:27;;;;;;;9.33;5.60;;;10.40;97.30;;;;;;4958605;28;20664;-85
2021/05/14 00:11:52;;;;;;;12.20;6.70;;;10.40;97.30;;;;;;4975004;28;20414;-87
2021/05/14 00:14:19;;;;;;;14.93;6.70;;;10.40;97.30;;;;;;4957500;28;20305;-86
2021/05/14 00:16:44;;;;;;;9.83;6.13;;;10.40;97.30;;;;;;4975336;28;20194;-86
2021/05/14 00:19:10;;;;;;;16.70;7.10;;;10.50;97.30;;;;;;4958237;28;20982;-86
2021/05/14 00:21:35;;;;;;;11.80;7.43;;;10.40;97.30;;;;;;4962967;28;20261;-86
2021/05/14 00:24:02;;;;;;;16.70;6.83;;;10.50;97.30;;;;;;4962243;28;20244;-85
2021/05/14 00:26:27;;;;;;;11.00;7.07;;;10.40;97.30;;;;;;4974751;28;20199;-87
2021/05/14 00:28:53;;;;;;;13.20;6.60;;;10.40;97.30;;;;;;4981532;28;20433;-86
2021/05/14 00:31:19;;;;;;;14.20;7.90;;;10.40;97.30;;;;;;4978615;29;20223;-86
2021/05/14 00:33:44;;;;;;;12.03;7.37;;;10.40;97.30;;;;;;4978591;28;20176;-86
2021/05/14 00:36:10;;;;;;;12.30;7.20;;;10.30;97.30;;;;;;4961744;29;20650;-85
2021/05/14 00:38:36;;;;;;;13.27;7.20;;;10.30;97.30;;;;;;4960115;29;20227;-86
2021/05/14 00:41:02;;;;;;;14.53;7.07;;;10.40;97.30;;;;;;4959556;29;20663;-87
2021/05/14 00:43:27;;;;;;;12.77;7.30;;;10.40;97.30;;;;;;4958332;29;20462;-86
2021/05/14 00:45:53;;;;;;;18.20;7.90;;;10.40;97.30;;;;;;4958431;29;20878;-86
2021/05/14 00:48:18;;;;;;;15.60;8.30;;;10.40;97.30;;;;;;4959256;29;20592;-86
2021/05/14 00:50:44;;;;;;;13.87;7.13;;;10.30;97.30;;;;;;4958338;29;20667;-86
2021/05/14 00:53:10;;;;;;;16.43;9.17;;;10.40;97.30;;;;;;4957842;29;20194;-86
2021/05/14 00:55:36;;;;;;;18.27;8.97;;;10.30;97.30;;;;;;4958284;29;20207;-86
2021/05/14 00:58:01;;;;;;;15.97;8.90;;;10.30;97.30;;;;;;4957898;29;20541;-86
2021/05/14 01:00:27;;;;;;;16.50;8.43;;;10.30;97.30;;;;;;4956718;29;20187;-86
2021/05/14 01:02:53;;;;;;;15.97;8.40;;;10.40;97.30;;;;;;4956926;29;20230;-86
2021/05/14 01:05:20;;;;;;;18.33;9.10;;;10.40;97.30;;;;;;4956379;29;20195;-86
2021/05/14 01:07:46;;;;;;;18.47;8.90;;;10.40;97.30;;;;;;4956282;29;20449;-87
2021/05/14 01:10:11;;;;;;;16.07;8.60;;;10.40;97.30;;;;;;4956341;29;20988;-86
2021/05/14 01:12:37;;;;;;;21.47;9.37;;;10.40;97.30;;;;;;4956403;29;20183;-86
2021/05/14 01:15:04;;;;;;;17.63;9.27;;;10.30;97.30;;;;;;4956283;29;20199;-86
2021/05/14 01:17:31;;;;;;;18.43;8.57;;;10.30;97.30;;;;;;4956042;29;20238;-86
2021/05/14 01:19:57;;;;;;;16.70;9.23;;;10.30;97.30;;;;;;4956145;29;21089;-86
2021/05/14 01:22:25;;;;;;;15.77;8.07;;;10.30;97.30;;;;;;4956141;29;20427;-86
2021/05/14 01:24:51;;;;;;;19.63;10.03;;;10.40;97.30;;;;;;4966931;23;20532;-86
2021/05/14 01:27:16;;;;;;;13.80;7.47;;;10.40;97.30;;;;;;4937739;29;20412;-86
2021/05/14 01:29:43;;;;;;;20.20;9.00;;;10.40;97.30;;;;;;4937867;29;20180;-86
2021/05/14 01:32:09;;;;;;;20.77;9.70;;;10.40;97.30;;;;;;4937098;29;20168;-86
2021/05/14 01:34:34;;;;;;;19.87;8.47;;;10.40;97.30;;;;;;4936763;29;20972;-86
2021/05/14 01:37:00;;;;;;;17.20;8.63;;;10.40;97.30;;;;;;4937400;29;20564;-86
2021/05/14 01:39:26;;;;;;;21.87;9.33;;;10.30;97.30;;;;;;4936667;29;20188;-86
2021/05/14 01:41:52;;;;;;;19.07;10.00;;;10.30;97.30;;;;;;4936291;29;20184;-86
2021/05/14 01:44:18;;;;;;;21.83;10.70;;;10.40;97.30;;;;;;4936246;29;20546;-86
2021/05/14 01:46:44;;;;;;;15.57;9.57;;;10.40;97.30;;;;;;4937891;29;20260;-86
2021/05/14 01:49:09;;;;;;;20.93;9.60;;;10.40;97.30;;;;;;4936105;29;20184;-86
2021/05/14 01:51:35;;;;;;;15.17;8.43;;;10.40;97.30;;;;;;4937164;29;20188;-86
2021/05/14 01:54:00;;;;;;;16.43;8.87;;;10.40;97.30;;;;;;4936322;29;20180;-86
2021/05/14 01:56:26;;;;;;;19.27;10.13;;;10.40;97.30;;;;;;4936011;29;20203;-86
2021/05/14 01:58:52;;;;;;;17.40;9.63;;;10.40;97.30;;;;;;4936278;29;20562;-86
2021/05/14 02:01:18;;;;;;;18.50;9.27;;;10.40;97.30;;;;;;4935735;29;20219;-86
2021/05/14 02:03:44;;;;;;;16.63;8.50;;;10.40;97.30;;;;;;4935965;29;20253;-86
2021/05/14 02:16:24;;;;;;;19.30;8.83;;;10.40;97.30;;;;;;4936226;29;20484;-86
2021/05/14 02:18:49;;;;;;;20.47;10.37;;;10.40;97.30;;;;;;4920690;29;20431;-84
2021/05/14 02:21:15;;;;;;;19.47;10.43;;;10.40;97.30;;;;;;4921017;29;20168;-86
2021/05/14 02:23:40;;;;;;;19.60;10.70;;;10.40;97.30;;;;;;4921428;29;20208;-86
2021/05/14 02:26:06;;;;;;;17.00;9.93;;;10.40;97.30;;;;;;4920837;29;20562;-86
2021/05/14 02:28:33;;;;;;;19.17;9.43;;;10.40;97.30;;;;;;4921517;29;20536;-86
2021/05/14 02:30:58;;;;;;;19.20;11.17;;;10.40;97.30;;;;;;4920932;29;20188;-85
2021/05/14 02:33:24;;;;;;;20.87;11.20;;;10.30;97.30;;;;;;4920962;29;20427;-86
2021/05/14 02:59:00;;;;;;;23.60;10.20;;;10.30;97.30;;;;;;4953199;29;20474;-86
2021/05/14 03:01:26;;;;;;;20.67;10.37;;;10.40;97.30;;;;;;4937649;29;20773;-84
2021/05/14 03:03:51;;;;;;;18.30;9.23;;;10.40;97.30;;;;;;4937858;29;20229;-84
2021/05/14 03:06:17;;;;;;;19.93;10.37;;;10.40;97.30;;;;;;4954828;28;20227;-84
2021/05/14 03:08:43;;;;;;;18.60;9.87;;;10.40;97.30;;;;;;4937736;29;20745;-84
2021/05/14 03:11:09;;;;;;;19.30;9.73;;;10.40;97.30;;;;;;4937556;29;20451;-84
2021/05/14 03:13:35;;;;;;;26.43;11.73;;;10.40;97.30;;;;;;4955029;29;20210;-84
2021/05/14 03:16:01;;;;;;;21.40;11.40;;;10.40;97.30;;;;;;4954372;28;20209;-84
2021/05/14 03:18:26;;;;;;;29.93;12.63;;;10.30;97.30;;;;;;4938495;29;20210;-84
2021/05/14 03:20:52;;;;;;;18.90;10.83;;;10.30;97.30;;;;;;4937918;29;20179;-84
2021/05/14 03:23:17;;;;;;;26.03;12.27;;;10.30;97.30;;;;;;4937655;29;20234;-84
2021/05/14 03:25:43;;;;;;;22.97;12.50;;;10.30;97.30;;;;;;4937293;29;20195;-84
2021/05/14 03:28:09;;;;;;;24.50;11.87;;;10.30;97.30;;;;;;4954690;29;20179;-84
2021/05/14 03:30:34;;;;;;;20.13;11.07;;;10.30;97.30;;;;;;4937848;29;20346;-84
2021/05/14 03:33:00;;;;;;;22.63;11.90;;;10.30;97.30;;;;;;4938036;29;20191;-85
2021/05/14 03:35:26;;;;;;;23.80;12.50;;;10.30;97.30;;;;;;4938033;29;20622;-84
2021/05/14 03:37:52;;;;;;;23.53;13.07;;;10.20;97.30;;;;;;4938425;29;20186;-84
2021/05/14 03:40:33;;;;;;;22.23;11.87;;;10.20;97.30;;;;;;4938395;29;20501;-84
2021/05/14 03:43:00;;;;;;;27.63;11.47;;;10.20;97.30;;;;;;4955706;29;20188;-84
2021/05/14 03:45:26;;;;;;;21.43;11.33;;;10.20;97.30;;;;;;4955412;28;20498;-84
2021/05/14 03:47:55;;;;;;;20.27;11.20;;;10.30;97.30;;;;;;4937946;29;20462;-86
2021/05/14 03:50:21;;;;;;;23.27;11.83;;;10.30;97.30;;;;;;4955410;29;20422;-84
2021/05/14 03:52:47;;;;;;;26.10;13.47;;;10.30;97.30;;;;;;4938226;29;20423;-84
2021/05/14 03:55:12;;;;;;;22.10;11.70;;;10.40;97.30;;;;;;4957823;28;20203;-85
2021/05/14 03:57:38;;;;;;;25.03;11.13;;;10.40;97.30;;;;;;4938436;29;20243;-84
2021/05/14 04:00:06;;;;;;;22.30;11.90;;;10.40;97.30;;;;;;4938677;29;20190;-85
2021/05/14 04:02:32;;;;;;;24.93;11.80;;;10.40;97.30;;;;;;4939071;29;20199;-85
2021/05/14 04:04:59;;;;;;;22.97;11.67;;;10.40;97.30;;;;;;4939211;29;20888;-84
2021/05/14 04:07:25;;;;;;;24.60;12.97;;;10.40;97.30;;;;;;4940909;29;20400;-85
2021/05/14 04:15:07;;;;;;;26.20;14.00;;;10.40;97.30;;;;;;4950734;28;20443;-86
2021/05/14 04:17:32;;;;;;;24.60;14.00;;;10.50;97.30;;;;;;4960677;28;20415;-83
2021/05/14 04:19:58;;;;;;;30.20;12.83;;;10.50;97.30;;;;;;4939255;29;20411;-86
2021/05/14 04:22:25;;;;;;;28.30;14.03;;;10.50;97.30;;;;;;4939236;29;20238;-86
2021/05/14 04:24:50;;;;;;;24.20;14.30;;;10.60;97.30;;;;;;4939040;29;20467;-87
2021/05/14 04:27:16;;;;;;;28.53;15.93;;;10.60;97.30;;;;;;4938841;29;20419;-87
2021/05/14 04:29:42;;;;;;;29.67;16.10;;;10.70;97.30;;;;;;4939006;29;20331;-87
2021/05/14 04:32:08;;;;;;;28.33;14.13;;;10.70;97.30;;;;;;4938765;29;20591;-86
2021/05/14 04:34:33;;;;;;;25.47;15.37;;;10.80;97.30;;;;;;4938254;29;20443;-86
2021/05/14 04:36:59;;;;;;;23.57;13.50;;;10.80;97.30;;;;;;4938183;29;20183;-87
2021/05/14 04:39:24;;;;;;;29.60;13.40;;;10.80;97.30;;;;;;4937777;29;20188;-86
2021/05/14 04:41:50;;;;;;;28.07;14.70;;;10.90;97.30;;;;;;4937096;29;20559;-86
2021/05/14 04:44:16;;;;;;;23.00;12.80;;;10.90;97.30;;;;;;4936998;29;20231;-86
2021/05/14 04:46:42;;;;;;;22.27;12.43;;;11.00;97.30;;;;;;4937131;29;20182;-86
2021/05/14 04:49:07;;;;;;;26.70;12.37;;;11.00;97.30;;;;;;4937097;29;20420;-86
2021/05/14 04:51:33;;;;;;;25.93;13.30;;;11.00;97.30;;;;;;4937124;29;20430;-86
2021/05/14 04:53:59;;;;;;;25.60;12.70;;;11.00;97.30;;;;;;4937163;29;20180;-86
2021/05/14 04:56:25;;;;;;;22.77;14.03;;;11.10;97.30;;;;;;4938386;29;20203;-86
2021/05/14 04:58:50;;;;;;;21.50;11.73;;;11.10;97.30;;;;;;4937066;29;20987;-86
2021/05/14 05:01:17;;;;;;;19.07;11.63;;;11.10;97.30;;;;;;4931361;29;20204;-87
2021/05/14 05:03:45;;;;;;;22.70;11.63;;;11.10;97.30;;;;;;4927231;29;20645;-87
2021/05/14 05:06:10;;;;;;;23.97;11.40;;;11.20;97.30;;;;;;4936538;29;20518;-86
2021/05/14 05:08:37;;;;;;;23.40;12.57;;;11.20;97.30;;;;;;4937940;29;20450;-86
2021/05/14 05:11:03;;;;;;;21.83;11.77;;;11.20;97.30;;;;;;4937281;29;20426;-86
2021/05/14 05:13:28;;;;;;;23.10;12.67;;;11.30;97.30;;;;;;4936351;29;20424;-87
2021/05/14 05:19:16;;;;;;;23.03;12.53;;;11.30;97.30;;;;;;4929607;29;20215;-77
2021/05/14 05:22:32;;;;;;;22.93;12.10;;;11.40;97.30;;;;;;4923116;29;20492;-77
2021/05/14 05:25:34;;;;;;;23.00;11.60;;;11.40;97.30;;;;;;4903052;29;20247;-76
2021/05/14 05:28:00;;;;;;;22.20;11.40;;;11.40;97.30;;;;;;4915148;29;20413;-77
2021/05/14 05:30:27;;;;;;;19.57;11.10;;;11.40;97.30;;;;;;4897068;29;20410;-77
2021/05/14 05:32:53;;;;;;;24.80;11.80;;;11.40;97.30;;;;;;4896358;29;20298;-76
2021/05/14 05:35:19;;;;;;;22.67;10.63;;;11.50;97.30;;;;;;4896852;29;20508;-75
2021/05/14 05:37:45;;;;;;;18.70;10.60;;;11.50;97.30;;;;;;4903146;29;20185;-75
2021/05/14 05:40:11;;;;;;;16.90;9.87;;;11.60;97.30;;;;;;4914960;29;20431;-77
2021/05/14 05:42:36;;;;;;;16.90;10.50;;;11.60;97.30;;;;;;4915702;29;20204;-76
2021/05/14 05:45:03;;;;;;;19.20;10.13;;;11.60;97.30;;;;;;4914940;29;20181;-75
2021/05/14 05:47:31;;;;;;;24.43;12.00;;;11.70;97.30;;;;;;4909885;29;20181;-74
2021/05/14 05:49:57;;;;;;;19.00;9.53;;;11.70;97.30;;;;;;4896949;29;20437;-74
2021/05/14 05:52:22;;;;;;;19.10;10.50;;;11.80;97.30;;;;;;4898702;29;20446;-73
2021/05/14 05:54:48;;;;;;;22.87;11.97;;;11.80;97.30;;;;;;4899069;29;20200;-73
2021/05/14 05:57:14;;;;;;;21.77;10.53;;;11.90;97.30;;;;;;4944311;23;20239;-75
2021/05/14 05:59:40;;;;;;;18.80;9.57;;;11.90;97.30;;;;;;4953819;29;20415;-75
2021/05/14 06:02:07;;;;;;;19.57;10.20;;;12.00;97.30;;;;;;4938542;29;20571;-74
2021/05/14 06:04:33;;;;;;;22.40;10.83;;;11.90;97.30;;;;;;4946495;29;20625;-78
2021/05/14 06:07:00;;;;;;;17.97;9.40;;;12.00;97.30;;;;;;4934994;29;20916;-75
2021/05/14 06:09:26;;;;;;;18.00;9.53;;;12.00;97.30;;;;;;4932339;29;20459;-76
2021/05/14 06:11:52;;;;;;;14.53;8.80;;;12.00;97.30;;;;;;4932493;29;20436;-79
2021/05/14 06:14:18;;;;;;;18.30;9.10;;;12.10;97.30;;;;;;4933843;29;20412;-77
2021/05/14 06:16:44;;;;;;;20.47;10.20;;;12.00;97.30;;;;;;4931120;29;20180;-75
2021/05/14 06:19:21;;;;;;;19.03;10.40;;;12.10;97.30;;;;;;4932146;29;20431;-76
2021/05/14 06:21:48;;;;;;;15.80;9.07;;;12.10;97.30;;;;;;4932537;29;20498;-75
2021/05/14 06:24:15;;;;;;;17.10;9.20;;;12.10;97.30;;;;;;4933003;29;20467;-77
2021/05/14 06:26:42;;;;;;;19.30;9.03;;;12.10;97.30;;;;;;4933162;29;20424;-76
2021/05/14 06:29:08;;;;;;;13.73;8.43;;;12.10;97.30;;;;;;4932707;29;20806;-78
2021/05/14 06:31:34;;;;;;;15.50;8.30;;;12.20;97.30;;;;;;4934247;29;20487;-79
2021/05/14 06:34:00;;;;;;;17.97;7.50;;;12.10;97.30;;;;;;4932576;29;20447;-76
2021/05/14 06:36:25;;;;;;;13.07;7.37;;;12.20;97.30;;;;;;4932629;29;20452;-75
2021/05/14 06:38:51;;;;;;;14.40;8.70;;;12.20;97.30;;;;;;4932805;29;20184;-76
2021/05/14 06:41:16;;;;;;;14.13;8.23;;;12.30;97.30;;;;;;4932313;29;20675;-76
2021/05/14 06:43:42;;;;;;;15.17;8.13;;;12.40;97.30;;;;;;4929192;29;20189;-78
2021/05/14 06:46:08;;;;;;;15.23;8.30;;;12.50;97.30;;;;;;4915460;29;20271;-75
2021/05/14 06:48:33;;;;;;;16.30;7.33;;;12.60;97.30;;;;;;4916256;29;20183;-75
2021/05/14 06:50:59;;;;;;;15.03;8.40;;;12.60;97.30;;;;;;4914940;29;20205;-76
2021/05/14 06:53:25;;;;;;;12.93;7.47;;;12.70;97.30;;;;;;4915483;29;20606;-76
2021/05/14 06:55:52;;;;;;;13.73;8.10;;;12.70;97.30;;;;;;4915365;29;20172;-77
2021/05/14 06:58:18;;;;;;;16.03;8.90;;;12.70;97.30;;;;;;4916307;29;20495;-76
2021/05/14 07:00:43;;;;;;;18.27;9.53;;;12.70;97.30;;;;;;4899555;29;20955;-79
2021/05/14 07:03:09;;;;;;;14.90;9.10;;;12.70;97.30;;;;;;4916334;29;20211;-75
2021/05/14 07:05:35;;;;;;;18.53;9.57;;;12.70;97.30;;;;;;4914666;29;20176;-77
2021/05/14 07:08:01;;;;;;;17.83;9.07;;;12.70;97.30;;;;;;4897955;29;20177;-76
2021/05/14 07:10:27;;;;;;;19.77;9.60;;;12.80;97.30;;;;;;4897848;29;20268;-77
2021/05/14 07:12:54;;;;;;;15.53;8.90;;;12.80;97.30;;;;;;4897619;29;20184;-77
2021/05/14 07:15:20;;;;;;;20.20;10.60;;;12.90;97.30;;;;;;4897921;29;20951;-77
2021/05/14 07:17:45;;;;;;;31.13;10.43;;;12.80;97.30;;;;;;4897979;29;20421;-76
2021/05/14 07:20:12;;;;;;;17.13;9.00;;;12.80;97.30;;;;;;4897151;29;20966;-77
2021/05/14 07:22:39;;;;;;;16.70;9.23;;;12.80;97.30;;;;;;4914105;29;20294;-77
2021/05/14 07:25:05;;;;;;;19.50;9.77;;;12.90;97.30;;;;;;4897680;29;20835;-79
2021/05/14 07:27:31;;;;;;;13.23;8.50;;;12.90;97.30;;;;;;4966276;23;20493;-77
2021/05/14 07:29:57;;;;;;;14.80;8.67;;;12.90;97.30;;;;;;4958544;28;20233;-76
2021/05/14 07:32:23;;;;;;;18.00;9.30;;;12.80;97.30;;;;;;4958456;28;20442;-77
2021/05/14 07:34:48;;;;;;;16.93;8.63;;;12.90;97.30;;;;;;4958692;28;20646;-77
2021/05/14 07:37:14;;;;;;;15.23;8.93;;;13.00;97.30;;;;;;4958772;28;20179;-77
2021/05/14 07:39:40;;;;;;;17.33;9.87;;;13.00;97.30;;;;;;4958076;28;20189;-77
2021/05/14 07:42:06;;;;;;;19.50;9.87;;;13.10;97.30;;;;;;4958399;28;20198;-77
2021/05/14 07:44:32;;;;;;;18.83;9.10;;;13.10;97.30;;;;;;4958384;28;20242;-77
2021/05/14 07:46:58;;;;;;;17.37;9.13;;;13.10;97.30;;;;;;4958003;28;20448;-77
2021/05/14 07:49:24;;;;;;;16.20;8.47;;;13.20;97.30;;;;;;4958074;28;20284;-77
2021/05/14 07:51:50;;;;;;;15.67;9.27;;;13.40;97.30;;;;;;4958546;28;20245;-77
2021/05/14 07:54:15;;;;;;;15.40;9.13;;;13.40;97.30;;;;;;4958061;28;20949;-77
2021/05/14 07:56:41;;;;;;;13.43;7.27;;;13.40;97.30;;;;;;4957948;28;20210;-77
2021/05/14 07:59:08;;;;;;;18.47;9.20;;;13.60;97.30;;;;;;4958407;28;20269;-76
2021/05/14 08:01:34;;;;;;;19.70;7.90;;;13.80;97.30;;;;;;4957719;28;20222;-76
2021/05/14 08:03:59;;;;;;;17.03;7.80;;;13.90;97.30;;;;;;4957026;28;20465;-77
2021/05/14 08:06:26;;;;;;;15.43;7.60;;;14.00;97.30;;;;;;4956978;28;20177;-79
2021/05/14 08:08:52;;;;;;;11.20;7.27;;;14.00;97.30;;;;;;4957575;28;20185;-76
2021/05/14 08:11:18;;;;;;;14.80;7.77;;;14.30;97.30;;;;;;4958120;28;20430;-78
2021/05/14 08:13:44;;;;;;;15.80;8.07;;;14.50;97.30;;;;;;4975301;28;20179;-76
2021/05/14 08:16:09;;;;;;;15.23;7.17;;;14.70;97.30;;;;;;4955716;28;20222;-77
2021/05/14 08:18:35;;;;;;;10.50;5.60;;;14.60;97.30;;;;;;4964535;28;20477;-78
2021/05/14 08:21:02;;;;;;;18.10;8.70;;;14.60;97.30;;;;;;4975645;28;20198;-78
2021/05/14 08:23:27;;;;;;;10.77;6.57;;;14.60;97.30;;;;;;4957721;28;20209;-77
2021/05/14 08:25:53;;;;;;;10.57;7.07;;;14.70;97.30;;;;;;4957572;28;20420;-78
2021/05/14 08:28:19;;;;;;;10.90;6.80;;;14.70;97.30;;;;;;4977682;28;20218;-77
2021/05/14 08:30:47;;;;;;;11.77;7.00;;;14.80;97.30;;;;;;4965626;28;20202;-75
2021/05/14 08:33:14;;;;;;;10.60;6.90;;;14.80;97.30;;;;;;4958599;28;20422;-77
2021/05/14 08:35:40;;;;;;;12.20;6.60;;;14.80;97.30;;;;;;4957882;28;20481;-77
2021/05/14 08:38:07;;;;;;;10.20;6.77;;;14.80;97.30;;;;;;4975795;28;20422;-77
2021/05/14 08:40:34;;;;;;;13.63;6.47;;;14.80;97.30;;;;;;4956637;28;20421;-77
2021/05/14 08:43:00;;;;;;;10.50;6.47;;;14.80;97.30;;;;;;4957481;28;20548;-77
2021/05/14 08:45:26;;;;;;;10.50;6.03;;;14.80;97.30;;;;;;4957124;28;20469;-76
2021/05/14 08:47:55;;;;;;;17.67;8.43;;;14.80;97.30;;;;;;4957327;28;20920;-76
2021/05/14 08:50:21;;;;;;;15.37;7.80;;;14.90;97.30;;;;;;4956956;28;20420;-75
2021/05/14 08:52:47;;;;;;;12.60;7.77;;;15.00;97.30;;;;;;4956907;28;20860;-75
2021/05/14 08:55:14;;;;;;;16.10;8.83;;;15.00;97.30;;;;;;4957055;28;20413;-75
2021/05/14 08:57:41;;;;;;;9.90;5.80;;;15.00;97.30;;;;;;4957141;28;20406;-76
2021/05/14 09:00:08;;;;;;;9.13;6.33;;;15.10;97.30;;;;;;4974095;28;20413;-76
2021/05/14 09:02:35;;;;;;;13.53;7.30;;;15.10;97.30;;;;;;4956569;28;20452;-75
2021/05/14 09:05:26;;;;;;;14.67;7.90;;;15.00;97.30;;;;;;4956479;28;20458;-75
2021/05/14 09:07:52;;;;;;;17.47;7.47;;;15.10;97.30;;;;;;4956946;28;20422;-76
2021/05/14 09:10:19;;;;;;;11.67;6.73;;;15.10;97.30;;;;;;4973537;28;20780;-75
2021/05/14 09:12:45;;;;;;;13.07;7.47;;;15.20;97.30;;;;;;4957129;28;20414;-76
2021/05/14 09:15:19;;;;;;;13.17;7.17;;;15.20;97.30;;;;;;4956806;28;20413;-75
2021/05/14 09:18:06;;;;;;;12.27;7.20;;;15.30;97.30;;;;;;4956511;28;20945;-75
2021/05/14 09:20:34;;;;;;;10.90;6.90;;;15.30;97.30;;;;;;4956970;28;20917;-75
2021/05/14 09:23:16;;;;;;;12.80;7.53;;;15.20;97.30;;;;;;4956058;28;20454;-76
2021/05/14 09:25:56;;;;;;;13.33;8.23;;;15.40;97.30;;;;;;4973295;28;20406;-75
2021/05/14 09:28:41;;;;;;;19.23;9.60;;;15.50;97.30;;;;;;4973777;28;20426;-75
2021/05/14 09:31:22;;;;;;;13.60;8.50;;;15.50;97.30;;;;;;4956021;28;20437;-75
2021/05/14 09:33:59;;;;;;;15.57;8.83;;;15.50;97.30;;;;;;4956012;28;20521;-76
2021/05/14 09:36:30;;;;;;;17.57;9.80;;;15.60;97.30;;;;;;4973571;28;20923;-75
2021/05/14 09:39:07;;;;;;;14.70;8.73;;;15.60;97.30;;;;;;4956166;28;20426;-75
2021/05/14 09:41:40;;;;;;;10.07;7.83;;;15.70;97.30;;;;;;4973188;28;20450;-75
2021/05/14 09:44:14;;;;;;;12.30;7.87;;;15.70;97.30;;;;;;4955912;28;20476;-75
2021/05/14 09:47:06;;;;;;;10.43;7.40;;;15.70;96.50;;;;;;4955669;28;20426;-74
2021/05/14 09:49:35;;;;;;;10.73;7.60;;;15.50;96.90;;;;;;4969320;28;20786;-77
2021/05/14 09:52:09;;;;;;;15.47;8.40;;;15.70;97.30;;;;;;4954918;28;20434;-75
2021/05/14 09:54:40;;;;;;;12.80;6.73;;;15.70;96.60;;;;;;4955712;28;20429;-75
2021/05/14 09:57:39;;;;;;;12.87;7.47;;;15.70;97.00;;;;;;4955528;28;20785;-75
2021/05/14 10:00:08;;;;;;;13.17;7.90;;;15.70;96.80;;;;;;4956127;28;20489;-75
2021/05/14 10:02:39;;;;;;;11.00;7.10;;;15.70;97.20;;;;;;4955314;28;20437;-75
2021/05/14 10:05:06;;;;;;;14.10;8.60;;;15.60;97.20;;;;;;4955542;28;20500;-75
2021/05/14 10:07:34;;;;;;;12.60;9.40;;;15.50;97.30;;;;;;4955742;28;20425;-75
2021/05/14 10:10:03;;;;;;;12.43;8.27;;;15.60;97.30;;;;;;4955522;28;20414;-75
2021/05/14 10:12:29;;;;;;;14.27;8.97;;;15.60;97.30;;;;;;4955435;28;20449;-75
2021/05/14 10:14:57;;;;;;;10.53;7.77;;;15.50;97.30;;;;;;4955545;28;20430;-75
2021/05/14 10:17:23;;;;;;;19.33;8.03;;;15.50;97.30;;;;;;4955554;28;20436;-75
2021/05/14 10:19:51;;;;;;;11.00;8.23;;;15.60;97.30;;;;;;4955128;28;20422;-75
2021/05/14 10:22:17;;;;;;;13.23;9.30;;;15.60;97.30;;;;;;4955320;28;20504;-75
2021/05/14 10:24:51;;;;;;;12.80;8.87;;;15.70;97.30;;;;;;4972382;28;20961;-75
2021/05/14 10:27:25;;;;;;;15.90;9.77;;;15.60;97.30;;;;;;4951513;28;20525;-76
2021/05/14 10:29:55;;;;;;;16.93;10.17;;;15.50;97.30;;;;;;4959721;28;20484;-75
2021/05/14 10:32:54;;;;;;;13.50;10.33;;;15.40;97.30;;;;;;4960461;28;20438;-76
2021/05/14 10:35:27;;;;;;;16.97;10.60;;;15.40;97.30;;;;;;4958861;28;20434;-75
2021/05/14 10:37:54;;;;;;;15.53;11.30;;;15.30;97.30;;;;;;4960529;28;20950;-75
2021/05/14 10:40:29;;;;;;;15.20;11.13;;;15.30;97.30;;;;;;4963953;28;20418;-75
2021/05/14 10:42:59;;;;;;;16.03;11.20;;;15.20;97.30;;;;;;4958606;28;20422;-75
2021/05/14 10:45:38;;;;;;;19.80;12.40;;;15.10;97.30;;;;;;4959555;28;20804;-76
2021/05/14 10:48:16;;;;;;;16.73;11.50;;;15.00;97.30;;;;;;4961677;28;20476;-74
2021/05/14 10:51:17;;;;;;;16.90;10.57;;;15.00;97.30;;;;;;4960683;28;20880;-75
2021/05/14 10:53:47;;;;;;;16.40;10.60;;;15.00;97.30;;;;;;4962127;28;20521;-75
2021/05/14 10:56:57;;;;;;;14.87;9.90;;;14.90;97.30;;;;;;4970471;28;20421;-75
2021/05/14 10:59:47;;;;;;;14.43;9.90;;;14.70;97.30;;;;;;4970609;28;20452;-74
2021/05/14 11:02:41;;;;;;;12.63;9.53;;;14.70;97.30;;;;;;4966903;28;20443;-74
2021/05/14 11:05:28;;;;;;;15.87;10.43;;;14.60;97.30;;;;;;4949211;29;20942;-76
2021/05/14 11:08:27;;;;;;;18.83;11.23;;;14.50;97.30;;;;;;4951393;29;20818;-75
2021/05/14 11:11:27;;;;;;;24.60;13.10;;;14.40;97.30;;;;;;4951244;29;21242;-76
2021/05/14 11:14:27;;;;;;;23.80;14.40;;;14.30;97.30;;;;;;4951312;29;20426;-76
2021/05/14 11:16:58;;;;;;;18.47;13.23;;;14.20;97.30;;;;;;4945912;29;20435;-75
2021/05/14 11:19:29;;;;;;;19.77;13.60;;;14.20;97.30;;;;;;4952790;28;20418;-76
2021/05/14 11:22:17;;;;;;;20.00;13.40;;;14.10;97.30;;;;;;4950738;29;20442;-76
2021/05/14 11:25:20;;;;;;;21.63;14.67;;;14.10;97.30;;;;;;4951193;29;20549;-76
2021/05/14 11:27:50;;;;;;;21.60;14.70;;;14.10;97.30;;;;;;4950444;29;20481;-76
2021/05/14 11:30:17;;;;;;;21.30;14.47;;;14.00;97.30;;;;;;4951717;29;20804;-77
2021/05/14 11:32:49;;;;;;;23.30;15.90;;;14.00;97.30;;;;;;4950741;29;20419;-76
2021/05/14 11:35:27;;;;;;;21.63;11.80;;;14.00;97.30;;;;;;4951533;29;20980;-77
2021/05/14 11:37:58;;;;;;;18.53;11.80;;;13.70;97.30;;;;;;4951922;29;20442;-77
2021/05/14 11:40:29;;;;;;;19.87;11.60;;;13.60;97.30;;;;;;4951766;29;20426;-76
2021/05/14 11:43:05;;;;;;;25.57;12.07;;;13.50;97.30;;;;;;4951027;29;20415;-76
2021/05/14 11:45:37;;;;;;;22.67;13.87;;;13.40;97.30;;;;;;4951565;29;20426;-77
2021/05/14 11:48:13;;;;;;;19.50;11.93;;;13.30;97.30;;;;;;4951489;29;20427;-77
2021/05/14 11:50:47;;;;;;;19.20;12.30;;;13.20;97.30;;;;;;4951089;29;20447;-76
2021/05/14 11:53:15;;;;;;;23.67;12.63;;;13.10;97.30;;;;;;4951685;29;20422;-77
2021/05/14 11:55:43;;;;;;;24.63;13.60;;;13.00;97.30;;;;;;4951247;29;20458;-77
2021/05/14 11:58:09;;;;;;;23.03;12.03;;;13.00;97.30;;;;;;4951389;29;20427;-77
2021/05/14 12:00:43;;;;;;;21.47;12.43;;;12.90;97.30;;;;;;4951704;29;20438;-77
2021/05/14 12:03:26;;;;;;;19.33;12.03;;;12.90;97.30;;;;;;4951249;29;20473;-76
2021/05/14 12:06:10;;;;;;;22.73;12.00;;;12.90;97.30;;;;;;4951469;29;21033;-77
2021/05/14 12:08:37;;;;;;;19.13;11.80;;;13.00;97.30;;;;;;4950794;29;20422;-76
2021/05/14 12:11:38;;;;;;;17.97;12.20;;;13.10;97.30;;;;;;4950987;29;21009;-76
2021/05/14 12:14:08;;;;;;;20.17;11.47;;;13.10;97.30;;;;;;4937706;28;20430;-76
2021/05/14 12:16:36;;;;;;;18.73;11.77;;;13.20;97.30;;;;;;4955199;29;20840;-76
2021/05/14 12:19:05;;;;;;;15.07;10.90;;;13.30;97.30;;;;;;4956149;29;20430;-76
2021/05/14 12:21:36;;;;;;;23.90;12.10;;;13.20;97.30;;;;;;4954727;29;20823;-76
2021/05/14 12:24:19;;;;;;;16.80;10.70;;;13.40;97.30;;;;;;4955019;29;20470;-76
2021/05/14 12:26:45;;;;;;;13.30;9.40;;;13.40;97.30;;;;;;4954472;29;20475;-76
2021/05/14 12:29:29;;;;;;;20.33;10.53;;;13.40;97.30;;;;;;4954476;29;20423;-76
2021/05/14 12:31:56;;;;;;;14.73;11.30;;;13.50;97.30;;;;;;4954570;29;20442;-76
2021/05/14 12:34:23;;;;;;;13.67;9.87;;;13.60;97.30;;;;;;4954244;29;20427;-76
2021/05/14 12:36:56;;;;;;;16.47;11.00;;;13.80;97.30;;;;;;4954106;29;20918;-76
2021/05/14 12:39:24;;;;;;;13.50;9.23;;;14.00;97.30;;;;;;4955578;28;20509;-76
2021/05/14 12:41:53;;;;;;;13.63;9.77;;;14.00;97.30;;;;;;4954033;29;20485;-75
2021/05/14 12:44:24;;;;;;;15.53;9.33;;;14.10;97.30;;;;;;4953750;29;20910;-76
2021/05/14 12:46:59;;;;;;;10.90;8.17;;;14.20;97.30;;;;;;4954109;29;20588;-75
2021/05/14 12:49:26;;;;;;;13.53;8.77;;;14.20;97.30;;;;;;4955633;29;20805;-76
2021/05/14 12:52:28;;;;;;;12.40;8.00;;;14.20;97.30;;;;;;4953200;29;20438;-76
2021/05/14 12:55:20;;;;;;;15.40;8.50;;;14.20;97.30;;;;;;4952769;29;20925;-75
2021/05/14 12:58:08;;;;;;;14.77;8.33;;;14.10;97.30;;;;;;4953714;29;20804;-76
2021/05/14 13:00:38;;;;;;;12.83;7.80;;;14.10;97.30;;;;;;4953518;29;20423;-76
2021/05/14 13:03:27;;;;;;;13.83;8.90;;;14.00;97.30;;;;;;4953696;29;20770;-76
2021/05/14 13:06:18;;;;;;;15.07;9.17;;;14.00;97.30;;;;;;4953804;29;20474;-76
2021/05/14 13:08:44;;;;;;;13.77;9.40;;;14.00;97.30;;;;;;4953520;29;20419;-76
2021/05/14 13:11:19;;;;;;;17.53;10.23;;;14.00;97.30;;;;;;4954914;29;20524;-76
2021/05/14 13:13:48;;;;;;;17.60;10.83;;;14.00;97.30;;;;;;4953713;29;21018;-77
2021/05/14 13:16:18;;;;;;;15.47;10.80;;;13.90;97.30;;;;;;4953402;29;21073;-76
2021/05/14 13:18:48;;;;;;;16.33;10.57;;;13.80;97.30;;;;;;4955001;28;20462;-76
2021/05/14 13:21:18;;;;;;;18.10;11.87;;;13.80;97.30;;;;;;4953163;29;20845;-77
2021/05/14 13:23:48;;;;;;;18.90;11.43;;;13.70;97.30;;;;;;4953031;29;20832;-75
2021/05/14 13:31:23;;;;;;;14.27;10.77;;;13.80;97.30;;;;;;4953533;28;20486;-79
2021/05/14 13:33:50;;;;;;;20.00;10.93;;;13.90;97.30;;;;;;4936977;29;20423;-78